Time;durP1;ratioP1;P1;durP2;ratioP2;P2;SDS_P1;SDS_P2;PMS_P1;PMS_P2;Temp;Humidity;BMP_temperature;BMP_pressure;BME280_temperature;BME280_humidity;BME280_pressure;Samples;Min_cycle;Max_cycle;Signal;HPM_P1;HPM_P2
2024/01/01 00:02:19;;;;;;;106.63;66.80;;;;;;;8.77;67.31;99245.50;4445195;32;20156;-74
2024/01/01 00:04:48;;;;;;;103.53;70.95;;;;;;;9.06;66.56;99260.06;4451669;32;20187;-74
2024/01/01 00:07:17;;;;;;;103.32;67.70;;;;;;;8.86;67.40;99253.59;4451633;32;20440;-74
2024/01/01 00:09:46;;;;;;;109.63;72.10;;;;;;;8.72;67.88;99252.94;4451764;32;20160;-74
2024/01/01 00:12:16;;;;;;;106.75;72.40;;;;;;;8.68;68.21;99254.09;4445782;32;20155;-74
2024/01/01 00:14:48;;;;;;;109.12;68.15;;;;;;;8.53;68.53;99251.59;4451545;32;20192;-74
2024/01/01 00:17:19;;;;;;;96.40;67.50;;;;;;;8.76;67.83;99251.75;4451577;32;20306;-74
2024/01/01 00:19:48;;;;;;;107.45;70.18;;;;;;;8.79;67.80;99243.59;4451860;32;20727;-74
2024/01/01 00:22:21;;;;;;;92.95;60.58;;;;;;;8.72;68.00;99247.66;4445176;32;20164;-73
2024/01/01 00:24:50;;;;;;;121.07;80.80;;;;;;;8.50;69.24;99248.31;4451013;32;20163;-73
2024/01/01 00:27:19;;;;;;;122.87;75.57;;;;;;;8.66;68.64;99242.78;4452003;32;20176;-74
2024/01/01 00:29:48;;;;;;;111.53;73.18;;;;;;;8.46;69.25;99239.78;4451414;32;20141;-74
2024/01/01 00:32:21;;;;;;;108.43;75.80;;;;;;;8.81;67.85;99241.69;4445143;32;20156;-74
2024/01/01 00:34:51;;;;;;;104.10;66.53;;;;;;;8.75;67.75;99242.12;4451420;32;20594;-73
2024/01/01 00:37:20;;;;;;;93.70;62.20;;;;;;;8.74;67.89;99249.22;4451429;32;20136;-73
2024/01/01 00:39:49;;;;;;;87.93;60.90;;;;;;;8.79;67.82;99236.53;4451376;32;20156;-73
2024/01/01 00:42:25;;;;;;;82.65;59.55;;;;;;;8.49;69.01;99231.66;4445575;32;20164;-74
2024/01/01 00:44:55;;;;;;;88.85;60.75;;;;;;;8.70;68.28;99223.13;4451246;32;20203;-74
2024/01/01 00:47:25;;;;;;;91.93;62.97;;;;;;;8.69;68.06;99229.38;4451256;32;20184;-73
2024/01/01 00:50:00;;;;;;;92.88;61.13;;;;;;;8.75;68.17;99231.56;4451215;32;20182;-74
2024/01/01 00:52:30;;;;;;;81.18;58.15;;;;;;;8.94;67.62;99237.19;4451545;32;20164;-74
2024/01/01 00:55:00;;;;;;;86.47;61.28;;;;;;;8.77;68.11;99238.44;4451311;32;20164;-73
2024/01/01 00:57:29;;;;;;;82.57;60.08;;;;;;;8.83;68.31;99230.06;4451370;32;20143;-73
2024/01/01 00:59:59;;;;;;;76.47;54.63;;;;;;;8.49;69.21;99223.72;4451458;32;20131;-74
2024/01/01 01:02:30;;;;;;;44.72;33.65;;;;;;;8.64;69.42;99234.16;4445668;32;20164;-74
2024/01/01 01:04:59;;;;;;;60.00;39.28;;;;;;;8.40;70.90;99232.31;4450742;32;20175;-74
2024/01/01 01:07:35;;;;;;;52.60;35.65;;;;;;;8.65;70.30;99225.28;4450881;32;20188;-74
2024/01/01 01:10:05;;;;;;;61.83;43.45;;;;;;;8.82;69.85;99227.53;4451315;32;20381;-74
2024/01/01 01:12:34;;;;;;;48.58;35.30;;;;;;;9.11;68.85;99226.25;4434776;32;20172;-74
2024/01/01 01:15:04;;;;;;;52.55;40.75;;;;;;;9.04;69.49;99216.25;4449512;32;20773;-74
2024/01/01 01:17:35;;;;;;;53.30;41.20;;;;;;;9.14;69.17;99209.31;4451256;32;20159;-74
2024/01/01 01:20:06;;;;;;;65.22;46.35;;;;;;;9.22;68.99;99208.72;4450380;32;20164;-74
2024/01/01 01:22:36;;;;;;;65.55;47.45;;;;;;;9.22;68.78;99209.56;4446297;32;20168;-74
2024/01/01 01:25:05;;;;;;;73.60;50.53;;;;;;;8.99;69.78;99213.94;4451327;32;20487;-74
2024/01/01 01:27:34;;;;;;;80.15;54.55;;;;;;;9.45;67.95;99212.31;4437017;32;20799;-74
2024/01/01 01:30:04;;;;;;;69.12;53.05;;;;;;;9.30;68.22;99211.66;4450615;32;20139;-74
2024/01/01 01:32:35;;;;;;;78.95;57.28;;;;;;;9.36;68.00;99201.47;4446094;32;20152;-74
2024/01/01 01:35:05;;;;;;;78.00;57.03;;;;;;;9.44;67.35;99200.87;4449927;32;20536;-74
2024/01/01 01:37:35;;;;;;;90.10;61.08;;;;;;;9.44;67.16;99198.25;4451085;32;20222;-74
2024/01/01 01:40:06;;;;;;;80.57;57.15;;;;;;;9.29;67.42;99199.38;4450247;32;20171;-74
2024/01/01 01:42:35;;;;;;;87.10;57.03;;;;;;;9.38;67.10;99197.84;4446165;32;20148;-74
2024/01/01 01:45:05;;;;;;;87.53;58.67;;;;;;;9.13;68.06;99190.94;4451257;32;20167;-74
2024/01/01 01:47:36;;;;;;;77.90;58.25;;;;;;;9.13;67.98;99188.28;4451188;32;20196;-75
2024/01/01 01:50:07;;;;;;;80.93;55.72;;;;;;;9.28;67.60;99187.13;4450872;32;20195;-73
2024/01/01 01:52:38;;;;;;;84.05;57.17;;;;;;;9.14;67.89;99180.22;4450904;32;20164;-74
2024/01/01 01:55:09;;;;;;;80.07;57.42;;;;;;;9.23;67.57;99174.28;4450892;32;20622;-74
2024/01/01 01:57:40;;;;;;;89.75;63.28;;;;;;;9.25;67.37;99177.63;4450940;32;20159;-74
2024/01/01 02:00:16;;;;;;;81.45;56.95;;;;;;;9.17;67.85;99180.00;4451068;32;20160;-74
2024/01/01 02:02:48;;;;;;;61.80;46.65;;;;;;;9.09;68.41;99170.00;4451107;32;20460;-74
2024/01/01 02:05:17;;;;;;;64.37;49.08;;;;;;;9.09;68.94;99175.28;4450805;32;20160;-74
2024/01/01 02:07:49;;;;;;;43.78;33.35;;;;;;;8.90;69.42;99167.03;4450635;32;20555;-74
2024/01/01 02:10:18;;;;;;;49.17;39.08;;;;;;;8.65;70.96;99177.75;4450638;32;20575;-74
2024/01/01 02:12:48;;;;;;;29.67;23.90;;;;;;;8.71;71.22;99172.84;4450774;32;20168;-74
2024/01/01 02:15:20;;;;;;;32.45;23.25;;;;;;;8.82;70.65;99172.06;4451038;32;20151;-74
2024/01/01 02:17:50;;;;;;;37.30;27.67;;;;;;;9.18;69.57;99162.34;4450290;32;20152;-74
2024/01/01 02:20:20;;;;;;;27.15;20.98;;;;;;;8.76;71.08;99159.31;4450529;32;20167;-74
2024/01/01 02:23:03;;;;;;;37.38;27.65;;;;;;;9.24;69.40;99159.25;4450597;32;20160;-74
2024/01/01 02:25:32;;;;;;;42.20;33.88;;;;;;;9.29;69.27;99162.37;4450629;32;20451;-74
2024/01/01 02:28:01;;;;;;;58.30;44.30;;;;;;;9.28;69.31;99156.25;4450454;32;20192;-74
2024/01/01 02:30:31;;;;;;;56.22;43.35;;;;;;;9.42;68.86;99143.78;4450377;32;20774;-74
2024/01/01 02:33:06;;;;;;;62.97;48.85;;;;;;;9.69;67.74;99130.22;4450836;32;20169;-74
2024/01/01 02:35:35;;;;;;;67.87;47.90;;;;;;;9.43;68.15;99135.75;4450449;32;20164;-74
2024/01/01 02:38:07;;;;;;;68.22;50.83;;;;;;;9.51;67.86;99127.22;4450354;32;20171;-74
2024/01/01 02:40:42;;;;;;;68.85;50.40;;;;;;;9.55;67.41;99126.88;4450294;32;20175;-74
2024/01/01 02:43:12;;;;;;;67.87;51.35;;;;;;;9.40;67.93;99130.69;4450339;32;20148;-74
2024/01/01 02:45:42;;;;;;;79.43;53.22;;;;;;;9.61;67.06;99128.19;4450240;32;20191;-74
2024/01/01 02:48:13;;;;;;;70.20;51.55;;;;;;;9.50;67.43;99117.59;4452479;32;20179;-74
2024/01/01 02:50:43;;;;;;;64.72;50.03;;;;;;;9.44;67.58;99120.72;4452203;32;20163;-74
2024/01/01 02:53:13;;;;;;;64.53;47.10;;;;;;;9.49;67.53;99111.47;4452208;32;20163;-74
2024/01/01 02:55:42;;;;;;;70.20;48.58;;;;;;;9.34;68.14;99116.16;4452221;32;20544;-74
2024/01/01 02:58:14;;;;;;;67.97;48.78;;;;;;;9.28;68.45;99113.97;4452278;32;20176;-74
2024/01/01 03:00:46;;;;;;;70.72;47.58;;;;;;;9.43;67.95;99109.31;4452099;32;20155;-74
2024/01/01 03:03:15;;;;;;;66.53;46.03;;;;;;;9.32;68.35;99107.47;4452611;32;20508;-74
2024/01/01 03:05:44;;;;;;;61.97;47.17;;;;;;;9.41;68.15;99107.72;4452351;32;20159;-74
2024/01/01 03:08:15;;;;;;;65.40;47.20;;;;;;;9.57;67.40;99109.06;4452105;32;20163;-74
2024/01/01 03:10:46;;;;;;;70.47;48.42;;;;;;;9.51;67.38;99106.06;4452179;32;20212;-74
2024/01/01 03:13:15;;;;;;;65.65;43.83;;;;;;;9.34;68.04;99116.16;4452074;32;20163;-74
2024/01/01 03:15:44;;;;;;;50.35;37.97;;;;;;;9.71;66.97;99123.03;4452179;32;20167;-74
2024/01/01 03:18:17;;;;;;;53.00;37.05;;;;;;;9.36;67.91;99116.84;4452477;32;20173;-74
2024/01/01 03:20:51;;;;;;;43.40;31.40;;;;;;;9.16;69.06;99129.91;4452014;32;20147;-74
2024/01/01 03:23:22;;;;;;;34.28;25.02;;;;;;;9.14;69.29;99126.53;4451972;32;20719;-74
2024/01/01 03:25:52;;;;;;;29.77;24.55;;;;;;;9.17;69.38;99132.44;4452315;32;20463;-74
2024/01/01 03:28:21;;;;;;;26.02;20.90;;;;;;;9.06;69.99;99143.81;4451987;32;20159;-74
2024/01/01 03:30:50;;;;;;;27.95;20.95;;;;;;;9.24;69.34;99148.69;4452093;32;20427;-74
2024/01/01 03:33:19;;;;;;;24.10;19.85;;;;;;;9.29;69.06;99141.22;4452299;32;20140;-74
2024/01/01 03:35:51;;;;;;;28.40;19.95;;;;;;;9.19;69.39;99145.56;4451598;32;20791;-74
2024/01/01 03:38:25;;;;;;;26.20;17.27;;;;;;;9.00;70.23;99146.09;4451950;32;20171;-74
2024/01/01 03:40:54;;;;;;;21.98;17.48;;;;;;;9.10;69.95;99136.50;4446014;32;20176;-74
2024/01/01 03:43:23;;;;;;;20.83;17.70;;;;;;;9.43;69.06;99129.63;4445544;32;20163;-74
2024/01/01 03:45:52;;;;;;;23.52;16.95;;;;;;;9.08;70.27;99135.78;4451938;32;20148;-74
2024/01/01 03:48:22;;;;;;;26.42;18.42;;;;;;;9.16;70.04;99133.41;4451810;32;20159;-73
2024/01/01 03:50:51;;;;;;;21.70;17.20;;;;;;;9.02;70.20;99129.12;4452386;32;20614;-74
2024/01/01 03:53:20;;;;;;;24.67;18.35;;;;;;;8.83;70.22;99134.13;4451764;32;20206;-74
2024/01/01 03:55:51;;;;;;;23.15;17.55;;;;;;;8.85;70.07;99129.56;4451812;32;20164;-74
2024/01/01 03:58:20;;;;;;;23.05;16.98;;;;;;;8.74;70.10;99125.06;4451243;32;20510;-74
2024/01/01 04:00:49;;;;;;;27.77;17.55;;;;;;;9.01;68.81;99116.06;4451709;32;20167;-74
2024/01/01 04:03:18;;;;;;;24.08;18.25;;;;;;;8.54;69.99;99092.22;4452190;32;20140;-74
2024/01/01 04:05:48;;;;;;;24.40;18.12;;;;;;;8.47;69.75;99096.25;4451638;32;20455;-74
2024/01/01 04:08:19;;;;;;;23.80;17.10;;;;;;;8.47;69.29;99098.88;4451746;32;20171;-74
2024/01/01 04:10:52;;;;;;;26.85;19.17;;;;;;;8.44;68.48;99091.22;4451731;32;20192;-74
2024/01/01 04:13:21;;;;;;;24.45;17.67;;;;;;;8.51;68.19;99092.47;4451755;32;20195;-74
2024/01/01 04:15:52;;;;;;;25.50;18.20;;;;;;;8.35;68.53;99097.12;4451658;32;20540;-74
2024/01/01 04:18:21;;;;;;;27.15;18.50;;;;;;;8.41;68.06;99090.59;4451991;32;20164;-74
2024/01/01 04:20:50;;;;;;;27.52;17.75;;;;;;;8.19;68.69;99091.28;4451554;32;20193;-74
2024/01/01 04:23:20;;;;;;;23.42;18.08;;;;;;;8.05;69.45;99094.91;4451617;32;20152;-73
2024/01/01 04:25:49;;;;;;;28.10;18.45;;;;;;;8.22;68.85;99091.91;4451644;32;20163;-74
2024/01/01 04:28:19;;;;;;;30.83;19.25;;;;;;;8.24;68.59;99097.91;4451680;32;20202;-74
2024/01/01 04:30:48;;;;;;;31.73;21.08;;;;;;;7.88;69.14;99096.13;4451492;32;20164;-74
2024/01/01 04:33:18;;;;;;;27.70;20.45;;;;;;;8.30;67.78;99094.81;4451993;32;21019;-74
2024/01/01 04:35:48;;;;;;;24.70;18.37;;;;;;;7.97;68.29;99100.75;4451446;32;20200;-74
2024/01/01 04:38:17;;;;;;;30.00;20.42;;;;;;;8.01;68.05;99101.37;4451577;32;20151;-74
2024/01/01 04:40:47;;;;;;;29.52;20.65;;;;;;;7.56;69.56;99116.81;4451553;32;20161;-74
2024/01/01 04:43:16;;;;;;;31.77;19.83;;;;;;;7.71;69.07;99107.00;4451628;32;20156;-74
2024/01/01 04:45:46;;;;;;;35.30;22.40;;;;;;;7.87;68.74;99126.06;4451631;32;20152;-74
2024/01/01 04:48:15;;;;;;;26.55;21.23;;;;;;;7.85;68.57;99131.47;4451931;32;20140;-74
2024/01/01 04:50:45;;;;;;;34.55;22.15;;;;;;;7.73;69.12;99126.22;4451405;32;20179;-74
2024/01/01 04:53:13;;;;;;;31.15;21.77;;;;;;;7.54;69.64;99139.81;4451637;32;20152;-74
2024/01/01 04:55:43;;;;;;;36.25;21.52;;;;;;;7.70;68.55;99142.25;4451268;32;20160;-74
2024/01/01 04:58:14;;;;;;;33.13;22.15;;;;;;;7.87;68.13;99131.34;4436324;32;20441;-74
2024/01/01 05:00:43;;;;;;;31.05;21.83;;;;;;;7.74;68.00;99138.44;4446457;32;20152;-73
2024/01/01 05:03:14;;;;;;;31.52;22.02;;;;;;;7.58;68.74;99142.13;4450600;32;20144;-74
2024/01/01 05:05:43;;;;;;;28.98;20.40;;;;;;;7.47;68.86;99144.66;4451231;32;20186;-74
2024/01/01 05:08:14;;;;;;;31.42;20.73;;;;;;;7.27;69.17;99129.38;4451470;32;20796;-74
2024/01/01 05:10:44;;;;;;;30.92;22.17;;;;;;;7.31;68.81;99152.78;4444979;32;20168;-74
2024/01/01 05:13:14;;;;;;;31.27;22.75;;;;;;;7.24;68.81;99130.41;4450320;32;20164;-74
2024/01/01 05:15:43;;;;;;;30.60;22.75;;;;;;;7.27;68.91;99130.22;4451199;32;20622;-73
2024/01/01 05:18:15;;;;;;;36.35;21.35;;;;;;;7.07;69.67;99115.75;4451661;32;20512;-74
2024/01/01 05:20:45;;;;;;;29.33;21.20;;;;;;;7.07;69.84;99128.09;4451215;32;20220;-74
2024/01/01 05:23:14;;;;;;;32.80;21.37;;;;;;;7.07;70.04;99128.91;4451331;32;20152;-74
2024/01/01 05:25:43;;;;;;;31.83;20.83;;;;;;;7.28;69.38;99133.69;4451078;32;20556;-74
2024/01/01 05:28:14;;;;;;;32.83;21.98;;;;;;;7.46;68.90;99140.34;4451478;32;20156;-74
2024/01/01 05:30:44;;;;;;;34.03;23.27;;;;;;;7.49;68.81;99126.13;4451069;32;20156;-74
2024/01/01 05:33:13;;;;;;;34.88;22.35;;;;;;;7.27;69.46;99114.41;4451523;32;20147;-74
2024/01/01 05:35:43;;;;;;;37.60;24.65;;;;;;;6.87;70.75;99121.50;4451036;32;20168;-74
2024/01/01 05:38:14;;;;;;;38.28;24.85;;;;;;;7.13;70.29;99125.88;4451100;32;20148;-74
2024/01/01 05:40:45;;;;;;;39.80;24.17;;;;;;;7.11;70.10;99124.28;4451072;32;20175;-74
2024/01/01 05:43:15;;;;;;;33.50;24.63;;;;;;;7.17;70.19;99108.09;4451147;32;20179;-73
2024/01/01 05:45:44;;;;;;;34.47;23.15;;;;;;;7.06;70.64;99118.50;4451045;32;20251;-74
2024/01/01 05:48:15;;;;;;;35.08;22.77;;;;;;;7.19;70.32;99115.88;4451354;32;20159;-74
2024/01/01 05:50:59;;;;;;;33.67;24.12;;;;;;;7.21;70.04;99117.47;4450889;32;20159;-74
2024/01/01 05:53:28;;;;;;;32.60;23.02;;;;;;;7.05;70.60;99112.41;4451177;32;20536;-74
2024/01/01 05:55:58;;;;;;;38.75;25.17;;;;;;;7.27;70.19;99117.03;4450835;32;20555;-74
2024/01/01 05:58:27;;;;;;;35.47;22.75;;;;;;;7.19;70.44;99111.44;4445048;32;20535;-74
2024/01/01 06:00:56;;;;;;;34.05;23.70;;;;;;;7.38;69.80;99106.59;4444605;32;20179;-74
2024/01/01 06:03:25;;;;;;;30.50;21.62;;;;;;;7.49;69.42;99102.41;4444670;32;20160;-74
2024/01/01 06:05:55;;;;;;;34.90;23.27;;;;;;;7.48;69.33;99101.53;4451110;32;20164;-74
2024/01/01 06:08:25;;;;;;;30.58;20.73;;;;;;;7.57;69.13;99100.06;4451099;32;20148;-74
2024/01/01 06:10:55;;;;;;;33.70;21.73;;;;;;;7.64;69.00;99096.03;4444696;32;20543;-74
2024/01/01 06:13:25;;;;;;;33.75;22.77;;;;;;;7.65;68.85;99097.75;4444450;32;20184;-74
2024/01/01 06:15:54;;;;;;;38.60;24.08;;;;;;;7.58;68.77;99102.59;4450684;32;20532;-74
2024/01/01 06:18:25;;;;;;;28.70;21.40;;;;;;;7.52;69.02;99108.31;4450689;32;20144;-73
2024/01/01 06:20:54;;;;;;;33.60;22.85;;;;;;;7.61;68.92;99109.44;4444533;32;20156;-74
2024/01/01 06:23:25;;;;;;;38.47;22.20;;;;;;;7.48;68.99;99116.50;4444226;32;20156;-74
2024/01/01 06:25:55;;;;;;;31.42;22.33;;;;;;;7.16;70.09;99114.28;4450528;32;20168;-74
2024/01/01 06:28:26;;;;;;;32.85;23.40;;;;;;;7.38;69.32;99105.78;4450473;32;20538;-74
2024/01/01 06:30:55;;;;;;;33.42;23.98;;;;;;;7.49;68.86;99083.94;4444391;32;20177;-74
2024/01/01 06:33:24;;;;;;;31.60;21.75;;;;;;;7.13;69.93;99102.19;4444207;32;20618;-73
2024/01/01 06:35:53;;;;;;;30.73;21.30;;;;;;;7.42;69.15;99111.69;4450794;32;20446;-74
2024/01/01 06:38:22;;;;;;;28.30;20.00;;;;;;;7.23;69.84;99110.28;4450437;32;20147;-74
2024/01/01 06:40:52;;;;;;;30.30;22.17;;;;;;;7.42;69.30;99107.25;4450387;32;20176;-74
2024/01/01 06:43:24;;;;;;;38.15;24.65;;;;;;;7.39;69.04;99115.34;4444027;32;20159;-74
2024/01/01 06:45:53;;;;;;;28.92;22.35;;;;;;;7.30;69.51;99119.47;4450539;32;20160;-74
2024/01/01 06:48:23;;;;;;;31.85;20.73;;;;;;;7.34;69.50;99120.09;4436008;32;20167;-73
2024/01/01 06:50:52;;;;;;;29.95;21.67;;;;;;;7.33;69.36;99118.44;4444768;32;20197;-74
2024/01/01 06:53:22;;;;;;;31.35;20.35;;;;;;;7.41;68.99;99126.66;4450006;32;20160;-74
2024/01/01 06:55:53;;;;;;;34.67;20.73;;;;;;;7.26;69.43;99122.41;4450073;32;20524;-74
2024/01/01 06:58:24;;;;;;;29.10;17.85;;;;;;;7.27;69.58;99108.28;4450078;32;20163;-74
2024/01/01 07:00:53;;;;;;;27.33;18.35;;;;;;;7.22;69.67;99123.56;4449987;32;20298;-74
2024/01/01 07:03:22;;;;;;;34.47;18.60;;;;;;;7.09;69.98;99137.59;4449993;32;20171;-73
2024/01/01 07:05:52;;;;;;;31.27;19.62;;;;;;;6.84;70.69;99143.62;4450299;32;20140;-75
2024/01/01 07:08:21;;;;;;;28.12;19.98;;;;;;;7.06;70.26;99142.22;4450000;32;20167;-74
2024/01/01 07:10:50;;;;;;;27.87;19.40;;;;;;;6.89;70.74;99146.81;4449980;32;20789;-74
2024/01/01 07:13:21;;;;;;;33.35;19.35;;;;;;;6.93;70.79;99160.63;4449747;32;20490;-73
2024/01/01 07:15:50;;;;;;;25.37;18.08;;;;;;;7.07;69.93;99173.69;4449770;32;20168;-73
2024/01/01 07:18:20;;;;;;;30.30;18.20;;;;;;;7.04;70.28;99176.53;4450195;32;20152;-73
2024/01/01 07:20:51;;;;;;;29.87;18.75;;;;;;;6.75;71.43;99190.78;4449790;32;20176;-74
2024/01/01 07:23:22;;;;;;;25.98;16.30;;;;;;;6.74;71.25;99186.47;4449737;32;20152;-74
2024/01/01 07:25:52;;;;;;;23.52;15.35;;;;;;;6.57;71.49;99192.78;4449619;32;20172;-74
2024/01/01 07:28:22;;;;;;;23.08;14.68;;;;;;;6.54;71.71;99206.19;4449588;32;20148;-73
2024/01/01 07:30:52;;;;;;;19.20;14.98;;;;;;;6.29;72.68;99198.97;4449629;32;20167;-74
2024/01/01 07:33:21;;;;;;;20.98;14.43;;;;;;;6.46;71.94;99211.91;4450251;32;20187;-74
2024/01/01 07:35:50;;;;;;;19.40;13.75;;;;;;;6.59;71.61;99210.19;4451872;32;20565;-74
2024/01/01 07:38:19;;;;;;;19.30;13.30;;;;;;;6.23;72.38;99225.66;4451923;32;20227;-74
2024/01/01 07:40:48;;;;;;;19.17;13.20;;;;;;;6.09;73.12;99222.09;4452061;32;20180;-74
2024/01/01 07:43:17;;;;;;;18.52;11.95;;;;;;;5.89;74.37;99228.53;4451873;32;20524;-74
2024/01/01 07:45:48;;;;;;;17.30;12.55;;;;;;;6.14;73.23;99221.84;4451872;32;20148;-73
2024/01/01 07:48:20;;;;;;;17.45;12.37;;;;;;;5.89;74.32;99231.16;4452283;32;20797;-74
2024/01/01 07:50:51;;;;;;;17.65;12.73;;;;;;;5.75;75.12;99239.06;4451842;32;20159;-74
2024/01/01 07:53:20;;;;;;;14.65;10.75;;;;;;;5.93;74.73;99241.53;4451743;32;20199;-74
2024/01/01 07:55:49;;;;;;;16.65;11.10;;;;;;;6.15;73.98;99239.28;4452090;32;20444;-74
2024/01/01 07:58:19;;;;;;;14.77;10.02;;;;;;;6.15;73.69;99244.56;4451779;32;20164;-74
2024/01/01 08:00:50;;;;;;;16.02;11.70;;;;;;;6.20;73.67;99253.00;4451771;32;20500;-73
2024/01/01 08:03:22;;;;;;;14.73;9.93;;;;;;;6.34;73.14;99250.38;4437734;32;20155;-74
2024/01/01 08:05:51;;;;;;;13.05;9.25;;;;;;;6.38;72.81;99249.25;4451334;32;20176;-74
2024/01/01 08:08:21;;;;;;;12.85;9.13;;;;;;;6.44;72.75;99241.91;4451657;32;20219;-75
2024/01/01 08:10:50;;;;;;;12.95;9.10;;;;;;;6.53;72.43;99244.81;4446196;32;20176;-74
2024/01/01 08:13:20;;;;;;;12.88;8.93;;;;;;;6.40;72.98;99255.25;4451208;32;20163;-74
2024/01/01 08:15:51;;;;;;;10.52;7.28;;;;;;;6.52;72.54;99247.53;4451570;32;20156;-73
2024/01/01 08:18:26;;;;;;;10.00;6.95;;;;;;;6.25;73.27;99261.44;4452045;32;20136;-74
2024/01/01 08:20:59;;;;;;;8.57;5.93;;;;;;;6.02;74.16;99259.38;4445473;32;20160;-74
2024/01/01 08:23:29;;;;;;;8.82;5.60;;;;;;;5.82;74.50;99261.41;4445840;32;20151;-74
2024/01/01 08:25:58;;;;;;;7.50;5.20;;;;;;;6.12;73.86;99257.88;4451604;32;20144;-74
2024/01/01 08:28:28;;;;;;;8.13;4.97;;;;;;;6.29;72.98;99248.94;4451380;32;20227;-74
2024/01/01 08:30:58;;;;;;;6.37;4.05;;;;;;;5.98;74.14;99269.25;4445294;32;20165;-74
2024/01/01 08:36:04;;;;;;;6.12;4.35;;;;;;;6.15;73.77;99244.56;4451889;32;20471;-74
2024/01/01 08:38:34;;;;;;;4.93;3.65;;;;;;;5.98;74.34;99253.50;4451542;32;20191;-74
2024/01/01 08:41:06;;;;;;;9.43;7.40;;;;;;;6.03;74.07;99243.53;4445476;32;20160;-74
2024/01/01 08:43:35;;;;;;;7.50;5.65;;;;;;;6.31;72.91;99249.72;4451415;32;20171;-74
2024/01/01 08:46:14;;;;;;;6.07;3.90;;;;;;;6.15;73.93;99255.06;4451367;32;20167;-74
2024/01/01 08:48:44;;;;;;;5.22;3.53;;;;;;;6.33;73.14;99247.81;4451554;32;20156;-74
2024/01/01 08:51:13;;;;;;;6.00;3.45;;;;;;;6.30;73.29;99250.66;4445606;32;20468;-74
2024/01/01 08:53:42;;;;;;;5.87;4.10;;;;;;;6.28;73.54;99258.62;4451359;32;20115;-75
2024/01/01 08:56:14;;;;;;;5.97;4.22;;;;;;;6.56;72.49;99239.34;4451377;32;20167;-75
2024/01/01 08:58:43;;;;;;;9.65;5.95;;;;;;;6.64;72.16;99244.94;4451436;32;20488;-74
2024/01/01 09:01:14;;;;;;;8.77;6.05;;;;;;;6.65;72.24;99262.47;4444965;32;20192;-74
2024/01/01 09:03:43;;;;;;;5.28;4.47;;;;;;;6.81;71.86;99269.34;4451434;32;20167;-74
2024/01/01 09:06:13;;;;;;;5.80;4.43;;;;;;;6.89;71.43;99260.06;4451646;32;20159;-74
2024/01/01 09:08:43;;;;;;;5.65;4.62;;;;;;;6.95;71.39;99257.94;4451533;32;20156;-73
2024/01/01 09:11:12;;;;;;;7.05;4.10;;;;;;;6.98;70.60;99255.13;4444986;32;20180;-74
2024/01/01 09:13:41;;;;;;;4.68;3.70;;;;;;;6.98;71.69;99278.84;4451324;32;20139;-74
2024/01/01 09:16:10;;;;;;;5.80;3.15;;;;;;;7.40;70.26;99256.72;4451261;32;20140;-74
2024/01/01 09:18:40;;;;;;;5.18;3.12;;;;;;;7.73;68.94;99247.50;4451329;32;20172;-74
2024/01/01 09:21:16;;;;;;;5.15;3.35;;;;;;;8.00;68.70;99235.06;4445145;32;20167;-74
2024/01/01 09:23:46;;;;;;;5.93;3.65;;;;;;;8.94;66.50;99242.47;4451172;32;20168;-74
2024/01/01 09:26:15;;;;;;;3.33;2.80;;;;;;;9.27;64.78;99236.53;4451171;32;20151;-74
2024/01/01 09:28:44;;;;;;;5.35;2.42;;;;;;;9.93;62.09;99236.81;4451194;32;20193;-74
2024/01/01 09:31:13;;;;;;;3.47;2.35;;;;;;;10.45;60.46;99239.84;4444775;32;20145;-74
2024/01/01 09:33:47;;;;;;;5.93;2.50;;;;;;;11.23;58.27;99238.84;4451084;32;20160;-74
2024/01/01 09:36:16;;;;;;;4.12;2.60;;;;;;;11.81;56.71;99250.75;4451498;32;20160;-74
2024/01/01 09:38:47;;;;;;;4.12;2.30;;;;;;;11.83;55.83;99253.28;4451387;32;20164;-74
2024/01/01 09:41:16;;;;;;;6.72;2.45;;;;;;;12.40;54.16;99237.81;4436796;32;20251;-74
2024/01/01 09:43:48;;;;;;;11.40;5.03;;;;;;;12.96;53.24;99231.94;4450975;32;20544;-74
2024/01/01 09:46:18;;;;;;;4.32;3.10;;;;;;;13.31;56.12;99230.59;4451165;32;20441;-74
2024/01/01 09:48:52;;;;;;;3.75;2.80;;;;;;;13.64;50.86;99231.97;4451074;32;20325;-74
2024/01/01 09:51:21;;;;;;;4.55;2.40;;;;;;;14.06;50.39;99228.97;4451563;32;20168;-74
2024/01/01 09:53:52;;;;;;;4.05;3.00;;;;;;;14.34;49.88;99225.34;4450561;32;20168;-75
2024/01/01 09:56:21;;;;;;;3.35;2.33;;;;;;;14.90;48.29;99229.72;4449998;32;20160;-74
2024/01/01 09:58:52;;;;;;;8.85;2.75;;;;;;;14.91;47.79;99243.88;4450879;32;20548;-75
2024/01/01 10:01:21;;;;;;;3.17;2.37;;;;;;;14.75;48.67;99234.69;4450778;32;20181;-75
2024/01/01 10:04:03;;;;;;;4.10;2.47;;;;;;;14.86;47.84;99247.00;4450835;32;20434;-74
2024/01/01 10:06:33;;;;;;;5.45;2.47;;;;;;;15.11;46.10;99236.59;4450859;32;20137;-74
2024/01/01 10:09:07;;;;;;;3.90;2.37;;;;;;;15.17;46.93;99246.66;4451471;32;20156;-74
2024/01/01 10:11:38;;;;;;;13.00;2.85;;;;;;;14.88;46.83;99249.50;4450889;32;20176;-74
2024/01/01 10:14:11;;;;;;;3.25;2.47;;;;;;;14.56;47.09;99245.47;4435131;32;20164;-74
2024/01/01 10:16:43;;;;;;;3.12;1.90;;;;;;;14.49;47.70;99252.38;4450942;32;20144;-74
2024/01/01 10:19:14;;;;;;;2.85;2.33;;;;;;;14.60;46.77;99246.00;4450669;32;20775;-74
2024/01/01 10:21:46;;;;;;;3.28;2.53;;;;;;;14.68;46.39;99233.59;4444310;32;20453;-74
2024/01/01 10:24:18;;;;;;;2.10;1.80;;;;;;;14.35;48.09;99237.69;4450979;32;20148;-74
2024/01/01 10:27:02;;;;;;;3.53;1.75;;;;;;;14.21;48.02;99231.00;4450455;32;20153;-74
2024/01/01 10:29:35;;;;;;;2.30;1.73;;;;;;;14.40;47.29;99229.25;4450786;32;20806;-74
2024/01/01 10:32:05;;;;;;;3.37;2.33;;;;;;;14.25;48.39;99231.53;4444137;32;20175;-74
2024/01/01 10:34:37;;;;;;;3.03;2.40;;;;;;;13.47;49.33;99223.72;4450397;32;20156;-74
2024/01/01 10:37:07;;;;;;;6.55;2.55;;;;;;;13.67;49.04;99231.69;4450447;32;20164;-74
2024/01/01 10:39:39;;;;;;;3.75;2.53;;;;;;;13.56;49.07;99232.69;4450347;32;20191;-74
2024/01/01 10:42:10;;;;;;;4.32;2.45;;;;;;;14.38;47.65;99221.41;4444804;32;20167;-74
2024/01/01 10:44:39;;;;;;;3.95;2.80;;;;;;;13.80;49.11;99216.25;4450196;32;20169;-74
2024/01/01 10:47:10;;;;;;;3.92;3.15;;;;;;;13.80;48.90;99223.41;4450274;32;20148;-74
2024/01/01 10:49:53;;;;;;;3.85;2.80;;;;;;;13.68;49.36;99209.41;4450473;32;20535;-74
2024/01/01 10:52:35;;;;;;;;;;;;;;;13.12;50.00;99207.47;4444383;32;20445;-74
2024/01/01 10:55:35;;;;;;;12.40;3.70;;;;;;;13.42;49.45;99210.03;4450090;32;20048;-74
2024/01/01 10:58:28;;;;;;;8.15;3.75;;;;;;;13.31;49.63;99215.47;4450153;32;20179;-74
2024/01/01 11:01:05;;;;;;;5.68;3.72;;;;;;;13.47;50.05;99222.91;4443713;32;20183;-74
2024/01/01 11:03:36;;;;;;;6.25;3.53;;;;;;;13.28;49.85;99227.22;4444940;32;20145;-74
2024/01/01 11:06:26;;;;;;;5.68;3.53;;;;;;;13.39;50.42;99217.44;4450411;32;20179;-74
2024/01/01 11:09:33;;;;;;;5.95;3.22;;;;;;;13.29;49.77;99228.91;4451754;32;20160;-74
2024/01/01 11:12:05;;;;;;;5.62;3.67;;;;;;;12.99;50.46;99226.34;4445328;32;20535;-74
2024/01/01 11:14:34;;;;;;;6.77;4.07;;;;;;;12.10;52.16;99228.00;4452110;32;20168;-74
2024/01/01 11:17:06;;;;;;;5.75;3.87;;;;;;;12.43;52.34;99227.75;4452120;32;20156;-74
2024/01/01 11:19:41;;;;;;;6.15;4.18;;;;;;;12.72;51.91;99230.50;4452152;32;20159;-74
2024/01/01 11:22:33;;;;;;;6.57;4.22;;;;;;;13.04;51.07;99232.91;4445750;32;20168;-74
2024/01/01 11:25:04;;;;;;;7.18;3.62;;;;;;;12.62;52.21;99236.75;4451899;32;20156;-74
2024/01/01 11:27:34;;;;;;;5.75;3.40;;;;;;;12.78;51.79;99234.41;4452403;32;20139;-74
2024/01/01 11:30:05;;;;;;;7.10;3.92;;;;;;;12.82;51.01;99243.78;4451639;32;20143;-74
2024/01/01 11:32:38;;;;;;;5.80;3.47;;;;;;;12.67;51.25;99242.47;4447365;32;20164;-74
2024/01/01 11:35:11;;;;;;;7.93;4.65;;;;;;;12.78;51.24;99253.00;4437670;32;20172;-74
2024/01/01 11:37:43;;;;;;;10.23;3.97;;;;;;;12.55;51.84;99269.19;4452026;32;20148;-74
2024/01/01 11:40:13;;;;;;;5.65;3.97;;;;;;;12.68;51.53;99242.38;4450852;32;20511;-74
2024/01/01 11:42:43;;;;;;;6.97;4.45;;;;;;;12.40;52.47;99262.56;4447620;32;20172;-73
2024/01/01 11:45:17;;;;;;;7.40;4.40;;;;;;;12.70;51.42;99250.19;4452219;32;20160;-74
2024/01/01 11:47:47;;;;;;;7.43;4.32;;;;;;;12.82;51.02;99250.94;4451949;32;20152;-74
2024/01/01 11:50:16;;;;;;;6.57;3.75;;;;;;;12.70;51.69;99252.84;4449947;32;20153;-74